Time;durP1;ratioP1;P1;durP2;ratioP2;P2;SDS_P1;SDS_P2;PMS_P1;PMS_P2;Temp;Humidity;BMP_temperature;BMP_pressure;BME280_temperature;BME280_humidity;BME280_pressure;Samples;Min_cycle;Max_cycle;Signal;HPM_P1;HPM_P2
2023/08/06 00:00:38;;;;;;;3.50;1.77;;;;;;;22.04;41.78;98489.31;5139032;27;20062;-46
2023/08/06 00:03:04;;;;;;;11.52;2.15;;;;;;;22.26;42.24;98487.00;5137709;27;20058;-47
2023/08/06 00:05:29;;;;;;;7.93;2.33;;;;;;;22.47;42.25;98487.56;5138993;27;20091;-47
2023/08/06 00:07:55;;;;;;;11.48;1.80;;;;;;;22.66;42.44;98489.53;5137698;27;20421;-47
2023/08/06 00:10:21;;;;;;;4.82;1.42;;;;;;;22.68;41.94;98493.53;5138782;27;20088;-47
2023/08/06 00:12:46;;;;;;;5.60;1.20;;;;;;;22.79;42.01;98488.84;5139024;27;20019;-47
2023/08/06 00:15:12;;;;;;;13.77;2.28;;;;;;;22.65;42.50;98487.94;5135699;27;20059;-47
2023/08/06 00:17:38;;;;;;;5.60;1.27;;;;;;;22.80;43.00;98476.25;5134348;27;20016;-47
2023/08/06 00:20:06;;;;;;;2.22;1.10;;;;;;;22.74;42.36;98483.56;5135590;27;20023;-47
2023/08/06 00:22:38;;;;;;;5.20;1.15;;;;;;;22.57;41.58;98486.69;5135548;27;20076;-47
2023/08/06 00:25:05;;;;;;;7.93;1.90;;;;;;;22.43;41.71;98485.75;5135485;27;20057;-47
2023/08/06 00:27:32;;;;;;;8.48;1.35;;;;;;;22.46;42.24;98482.53;5135502;27;20106;-47
2023/08/06 00:29:58;;;;;;;9.00;1.60;;;;;;;22.66;42.26;98484.97;5135687;27;20045;-47
2023/08/06 00:32:23;;;;;;;3.75;0.85;;;;;;;22.78;41.39;98487.25;5135398;27;20016;-47
2023/08/06 00:34:49;;;;;;;14.73;2.00;;;;;;;22.76;41.57;98494.78;5134088;27;20160;-47
2023/08/06 00:37:16;;;;;;;10.25;2.03;;;;;;;22.98;41.44;98490.75;5134079;27;20015;-47
2023/08/06 00:39:43;;;;;;;4.03;1.20;;;;;;;23.18;41.70;98487.88;5116910;27;20027;-47
2023/08/06 00:42:08;;;;;;;4.18;1.70;;;;;;;23.17;41.10;98482.81;5116875;27;20386;-47
2023/08/06 00:44:34;;;;;;;4.68;1.38;;;;;;;23.38;40.71;98486.00;5135198;27;20030;-47
2023/08/06 00:47:00;;;;;;;8.52;1.52;;;;;;;23.55;39.98;98483.59;5135170;27;20145;-47
2023/08/06 00:49:25;;;;;;;7.00;1.88;;;;;;;23.72;39.59;98491.94;5135115;27;20027;-46
2023/08/06 00:51:51;;;;;;;7.75;1.50;;;;;;;23.77;39.12;98484.91;5133708;27;20038;-47
2023/08/06 00:54:17;;;;;;;7.10;1.08;;;;;;;23.82;39.04;98482.94;5116676;27;20030;-46
2023/08/06 00:56:43;;;;;;;8.05;1.92;;;;;;;23.93;38.70;98479.03;5135020;27;20380;-46
2023/08/06 00:59:10;;;;;;;8.13;1.30;;;;;;;23.96;38.67;98483.00;5133757;27;20494;-47
2023/08/06 01:01:36;;;;;;;16.02;2.22;;;;;;;23.93;38.88;98488.97;5134913;27;20024;-47
2023/08/06 01:04:03;;;;;;;16.15;2.55;;;;;;;23.91;38.50;98488.47;5134913;27;20470;-47
2023/08/06 01:07:02;;;;;;;13.70;3.10;;;;;;;23.84;38.93;98488.03;5133475;27;20027;-47
2023/08/06 01:09:37;;;;;;;4.97;1.27;;;;;;;23.83;38.67;98489.13;5134393;27;20404;-46
2023/08/06 01:12:24;;;;;;;;;;;;;;;23.82;38.89;98493.66;5135116;27;20027;-47
2023/08/06 01:15:04;;;;;;;13.35;2.50;;;;;;;23.71;38.85;98490.31;5134703;27;19915;-47
2023/08/06 01:17:30;;;;;;;14.18;2.10;;;;;;;23.71;39.00;98487.66;5134571;27;20030;-47
2023/08/06 01:19:56;;;;;;;8.40;4.10;;;;;;;23.78;38.93;98481.16;5134715;27;20023;-47
2023/08/06 01:22:22;;;;;;;7.63;1.67;;;;;;;23.64;38.66;98495.28;5116025;27;20519;-47
2023/08/06 01:24:50;;;;;;;9.95;4.88;;;;;;;23.44;38.84;98488.31;5134485;27;20084;-47
2023/08/06 01:27:28;;;;;;;7.13;1.73;;;;;;;23.28;39.20;98487.75;5134530;27;20046;-46
2023/08/06 01:30:16;;;;;;;7.85;1.80;;;;;;;23.10;39.65;98500.03;5134495;27;20130;-47
2023/08/06 01:32:45;;;;;;;2.17;0.90;;;;;;;23.05;39.97;98493.94;5134348;27;20099;-47
2023/08/06 01:35:13;;;;;;;10.02;2.00;;;;;;;22.90;39.97;98498.34;5134142;27;20019;-46
2023/08/06 01:37:40;;;;;;;9.70;1.67;;;;;;;22.76;40.14;98499.31;5134139;27;20019;-47
2023/08/06 01:40:10;;;;;;;5.30;1.25;;;;;;;22.72;40.45;98493.75;5132686;27;20031;-47
2023/08/06 01:42:36;;;;;;;12.60;2.55;;;;;;;22.72;40.46;98497.22;5115894;27;20061;-46
2023/08/06 01:45:01;;;;;;;8.98;1.60;;;;;;;22.77;40.17;98495.56;5132665;27;20050;-46
2023/08/06 01:47:27;;;;;;;6.72;1.25;;;;;;;22.80;40.40;98495.81;5133952;27;20023;-47
2023/08/06 01:49:53;;;;;;;8.40;1.38;;;;;;;22.85;40.27;98506.44;5133908;27;20032;-46
2023/08/06 01:52:19;;;;;;;15.70;2.30;;;;;;;22.76;40.38;98494.78;5133767;27;20023;-47
2023/08/06 01:54:45;;;;;;;17.40;4.47;;;;;;;22.67;40.86;98493.78;5133869;27;20055;-47
2023/08/06 01:57:11;;;;;;;11.40;2.05;;;;;;;22.60;40.62;98502.16;5133770;27;20051;-47
2023/08/06 01:59:36;;;;;;;16.20;10.27;;;;;;;22.56;40.92;98497.66;5132380;27;20072;-47
2023/08/06 02:02:02;;;;;;;11.27;2.92;;;;;;;22.54;40.89;98504.09;5132306;27;20031;-47
2023/08/06 02:04:28;;;;;;;5.15;1.55;;;;;;;22.54;40.83;98505.97;5132299;27;20034;-47
2023/08/06 02:06:54;;;;;;;5.05;1.10;;;;;;;22.46;41.14;98509.28;5133658;27;20024;-47
2023/08/06 02:09:19;;;;;;;2.75;0.90;;;;;;;22.37;40.97;98503.72;5131977;27;20047;-47
2023/08/06 02:11:45;;;;;;;8.82;2.35;;;;;;;22.28;41.58;98513.44;5132086;27;20019;-47
2023/08/06 02:14:11;;;;;;;9.77;1.83;;;;;;;22.23;41.20;98518.78;5132139;27;20046;-47
2023/08/06 02:16:37;;;;;;;9.82;1.88;;;;;;;22.16;41.31;98513.78;5133347;27;20099;-47
2023/08/06 02:19:03;;;;;;;7.22;1.73;;;;;;;22.05;41.57;98517.59;5133318;27;20051;-47
2023/08/06 02:21:28;;;;;;;3.65;1.27;;;;;;;21.99;41.67;98519.50;5131981;27;20012;-47
2023/08/06 02:23:54;;;;;;;10.55;1.70;;;;;;;21.90;42.36;98510.50;5131953;27;20027;-46
2023/08/06 02:26:20;;;;;;;10.93;2.55;;;;;;;21.81;42.56;98513.00;5133205;27;20027;-46
2023/08/06 02:28:46;;;;;;;5.30;1.48;;;;;;;21.93;42.52;98505.41;5131910;27;20019;-46
2023/08/06 02:31:11;;;;;;;4.95;1.10;;;;;;;21.99;42.60;98510.72;5133118;27;20074;-47
2023/08/06 02:33:37;;;;;;;8.05;1.33;;;;;;;21.92;42.40;98519.06;5133198;27;20496;-47
2023/08/06 02:36:04;;;;;;;13.23;2.53;;;;;;;21.92;42.63;98516.38;5131730;27;20381;-47
2023/08/06 02:38:30;;;;;;;4.72;1.48;;;;;;;21.89;42.65;98520.41;5132523;27;20034;-47
2023/08/06 02:40:56;;;;;;;9.98;1.50;;;;;;;21.96;42.49;98517.41;5131605;27;20019;-46
2023/08/06 02:43:22;;;;;;;7.47;1.67;;;;;;;22.07;42.08;98523.47;5132993;27;20034;-47
2023/08/06 02:45:47;;;;;;;12.30;2.20;;;;;;;22.13;42.21;98522.34;5133190;27;20102;-47
2023/08/06 02:48:13;;;;;;;8.38;1.60;;;;;;;22.02;42.13;98524.31;5131606;27;20023;-47
2023/08/06 02:50:40;;;;;;;15.45;2.38;;;;;;;21.99;42.63;98519.50;5132912;27;20038;-47
2023/08/06 02:53:06;;;;;;;6.78;1.73;;;;;;;21.94;42.78;98524.91;5133126;27;20023;-47
2023/08/06 02:55:33;;;;;;;7.18;1.35;;;;;;;21.86;42.74;98533.53;5131623;27;20095;-46
2023/08/06 02:58:00;;;;;;;5.40;1.75;;;;;;;21.73;43.12;98541.09;5132882;27;20023;-47
2023/08/06 03:00:26;;;;;;;6.80;1.48;;;;;;;21.55;43.14;98539.06;5131678;27;20019;-47
2023/08/06 03:02:53;;;;;;;5.60;1.77;;;;;;;21.37;43.54;98542.31;5131441;28;20175;-47
2023/08/06 03:05:18;;;;;;;7.15;1.73;;;;;;;21.24;43.97;98535.72;5132774;27;20102;-46
2023/08/06 03:07:44;;;;;;;6.55;1.63;;;;;;;21.20;44.21;98532.00;5131424;28;20031;-47
2023/08/06 03:10:10;;;;;;;10.45;2.10;;;;;;;21.13;44.43;98522.41;5132460;27;20054;-46
2023/08/06 03:12:35;;;;;;;10.02;2.42;;;;;;;21.17;44.47;98525.34;5132672;28;20094;-47
2023/08/06 03:15:01;;;;;;;7.88;2.58;;;;;;;21.21;44.10;98531.72;5131296;28;20107;-46
2023/08/06 03:17:27;;;;;;;7.53;2.05;;;;;;;21.20;44.34;98527.44;5132650;28;20503;-47
2023/08/06 03:19:53;;;;;;;13.43;2.50;;;;;;;21.15;44.34;98532.81;5131543;28;20027;-47
2023/08/06 03:22:18;;;;;;;19.38;2.85;;;;;;;21.09;44.44;98537.38;5131166;28;20029;-45
2023/08/06 03:24:44;;;;;;;19.30;3.13;;;;;;;21.13;44.41;98538.44;5131210;28;20114;-46
2023/08/06 03:27:10;;;;;;;20.08;2.60;;;;;;;21.14;44.63;98542.66;5132526;27;20019;-47
2023/08/06 03:29:35;;;;;;;13.98;2.83;;;;;;;21.11;44.31;98542.44;5131188;28;20027;-46
2023/08/06 03:32:01;;;;;;;6.63;2.03;;;;;;;21.05;44.10;98544.31;5132444;27;20026;-46
2023/08/06 03:34:26;;;;;;;20.75;2.92;;;;;;;20.97;44.41;98536.88;5132470;27;20023;-46
2023/08/06 03:36:52;;;;;;;10.98;2.35;;;;;;;20.87;44.20;98536.91;5132397;27;20485;-46
2023/08/06 03:39:18;;;;;;;13.18;2.65;;;;;;;20.74;44.65;98541.75;5132355;27;20023;-47
2023/08/06 03:41:43;;;;;;;10.02;2.50;;;;;;;20.67;44.80;98543.09;5132402;27;20023;-46
2023/08/06 03:44:09;;;;;;;12.10;2.60;;;;;;;20.51;44.62;98539.63;5131034;28;20031;-46
2023/08/06 03:46:35;;;;;;;10.50;2.10;;;;;;;20.36;44.80;98545.75;5132422;27;20019;-46
2023/08/06 03:49:00;;;;;;;12.07;2.15;;;;;;;20.24;45.15;98553.22;5131001;28;20504;-46
2023/08/06 03:51:26;;;;;;;12.32;2.92;;;;;;;20.06;45.57;98559.88;5134523;27;20030;-46
2023/08/06 03:53:52;;;;;;;10.98;2.30;;;;;;;19.97;45.84;98566.81;5134889;27;20064;-46
2023/08/06 03:56:18;;;;;;;7.82;2.50;;;;;;;19.93;45.95;98564.66;5136126;27;20460;-46
2023/08/06 03:58:43;;;;;;;10.23;2.50;;;;;;;19.88;45.95;98559.34;5134803;27;20024;-46
2023/08/06 04:01:09;;;;;;;9.48;2.42;;;;;;;19.75;45.99;98562.50;5134577;27;20496;-46
2023/08/06 04:03:35;;;;;;;8.48;2.53;;;;;;;19.60;46.31;98567.75;5134674;27;20027;-46
2023/08/06 04:06:03;;;;;;;10.75;2.83;;;;;;;19.47;46.49;98558.41;5134601;27;20407;-46
2023/08/06 04:08:29;;;;;;;13.23;2.92;;;;;;;19.33;46.75;98558.09;5135668;27;20058;-47
2023/08/06 04:10:54;;;;;;;15.40;2.85;;;;;;;19.27;46.85;98559.91;5135924;27;20029;-46
2023/08/06 04:13:20;;;;;;;10.85;2.40;;;;;;;19.27;46.87;98562.59;5135738;27;20102;-46
2023/08/06 04:15:47;;;;;;;9.57;3.13;;;;;;;19.22;46.99;98561.78;5136028;27;20039;-47
2023/08/06 04:18:13;;;;;;;20.02;3.15;;;;;;;19.30;47.06;98571.94;5135766;27;20047;-46
2023/08/06 04:20:46;;;;;;;13.70;4.00;;;;;;;19.54;46.97;98565.09;5135634;27;20031;-46
2023/08/06 04:23:12;;;;;;;14.18;3.03;;;;;;;19.87;46.18;98576.38;5135630;27;20030;-46
2023/08/06 04:25:38;;;;;;;12.07;2.50;;;;;;;20.10;45.93;98583.06;5135554;27;20048;-47
2023/08/06 04:28:04;;;;;;;11.30;2.75;;;;;;;20.38;45.18;98586.25;5135546;27;20027;-47
2023/08/06 04:30:30;;;;;;;16.10;3.03;;;;;;;20.60;44.85;98590.56;5135538;27;20060;-46
2023/08/06 04:32:57;;;;;;;15.45;3.13;;;;;;;20.81;44.33;98583.34;5134186;27;20079;-46
2023/08/06 04:35:23;;;;;;;13.88;2.92;;;;;;;20.84;43.67;98582.78;5134174;27;20015;-47
2023/08/06 04:37:52;;;;;;;12.15;2.72;;;;;;;20.86;43.95;98588.66;5135355;27;20404;-47
2023/08/06 04:40:17;;;;;;;12.25;2.70;;;;;;;21.01;43.66;98593.19;5135247;27;20502;-46
2023/08/06 04:42:43;;;;;;;19.50;3.75;;;;;;;21.18;43.41;98593.63;5134292;27;20074;-47
2023/08/06 04:45:09;;;;;;;13.13;2.58;;;;;;;21.40;43.23;98598.63;5135229;27;20504;-46
2023/08/06 04:47:35;;;;;;;18.20;3.10;;;;;;;21.44;42.87;98596.25;5135261;27;20136;-46
2023/08/06 04:50:01;;;;;;;9.52;2.08;;;;;;;21.50;42.57;98598.63;5133764;27;20121;-46
2023/08/06 04:52:28;;;;;;;14.20;2.97;;;;;;;21.51;42.67;98589.56;5135071;27;20054;-46
2023/08/06 04:54:56;;;;;;;13.93;2.58;;;;;;;21.56;42.69;98602.06;5135018;27;20038;-47
2023/08/06 04:57:22;;;;;;;20.88;3.55;;;;;;;21.66;42.53;98601.22;5135001;27;20381;-46
2023/08/06 04:59:48;;;;;;;9.35;2.75;;;;;;;21.76;42.55;98611.06;5134877;27;20027;-46
2023/08/06 05:02:14;;;;;;;12.55;2.88;;;;;;;21.80;42.38;98606.78;5134321;27;20016;-46
2023/08/06 05:04:39;;;;;;;10.32;2.47;;;;;;;21.81;42.05;98611.84;5133685;27;20484;-46
2023/08/06 05:07:06;;;;;;;16.25;2.92;;;;;;;21.47;42.43;98617.88;5134757;27;20094;-47
2023/08/06 05:09:32;;;;;;;40.55;4.05;;;;;;;21.45;42.75;98616.53;5134454;27;20080;-47
2023/08/06 05:11:57;;;;;;;9.57;2.55;;;;;;;21.61;45.33;98626.09;5133389;27;20023;-46
2023/08/06 05:14:23;;;;;;;13.05;2.80;;;;;;;21.61;46.55;98631.44;5134855;27;20019;-46
2023/08/06 05:16:49;;;;;;;15.55;2.90;;;;;;;21.49;49.38;98647.78;5134558;27;20560;-46
2023/08/06 05:19:14;;;;;;;17.55;3.15;;;;;;;21.04;51.89;98637.97;5133328;27;20015;-46
2023/08/06 05:21:40;;;;;;;12.02;2.40;;;;;;;20.12;53.51;98652.06;5134385;27;20493;-45
2023/08/06 05:24:06;;;;;;;12.43;2.80;;;;;;;19.35;55.81;98649.09;5134775;27;20113;-45
2023/08/06 05:26:31;;;;;;;10.23;2.10;;;;;;;18.94;57.13;98662.16;5134344;27;20377;-45
2023/08/06 05:28:57;;;;;;;18.25;2.70;;;;;;;18.54;58.95;98669.53;5134366;27;20038;-46
2023/08/06 05:31:23;;;;;;;11.38;2.17;;;;;;;18.46;59.97;98667.34;5134300;27;20046;-46
2023/08/06 05:33:48;;;;;;;21.55;3.45;;;;;;;18.49;60.37;98666.84;5133122;27;20111;-46
2023/08/06 05:36:17;;;;;;;17.00;3.42;;;;;;;18.72;60.23;98676.31;5134167;27;20023;-46
2023/08/06 05:38:43;;;;;;;15.73;3.10;;;;;;;18.69;59.70;98674.19;5132890;27;20022;-46
2023/08/06 05:41:09;;;;;;;10.45;2.63;;;;;;;18.97;59.50;98696.22;5133982;27;20020;-46
2023/08/06 05:43:34;;;;;;;8.85;2.00;;;;;;;19.08;58.59;98700.56;5132629;27;20068;-46
2023/08/06 05:46:00;;;;;;;10.55;2.30;;;;;;;18.88;58.29;98706.53;5133818;27;20051;-47
2023/08/06 05:48:27;;;;;;;14.57;3.20;;;;;;;18.90;59.19;98715.06;5132894;27;20103;-46
2023/08/06 05:50:53;;;;;;;13.88;2.40;;;;;;;19.26;58.28;98720.66;5134163;27;20052;-46
2023/08/06 05:53:19;;;;;;;12.60;2.67;;;;;;;19.57;58.11;98720.81;5132827;27;20027;-47
2023/08/06 05:55:45;;;;;;;12.43;2.50;;;;;;;19.63;57.17;98735.75;5115384;27;20027;-46
2023/08/06 05:58:10;;;;;;;12.85;2.28;;;;;;;19.55;56.50;98733.59;5133736;27;20024;-46
2023/08/06 06:00:36;;;;;;;7.57;2.40;;;;;;;19.66;55.11;98737.09;5133590;27;20027;-46
2023/08/06 06:03:02;;;;;;;8.98;4.15;;;;;;;19.91;53.81;98741.78;5132644;27;20026;-46
2023/08/06 06:05:28;;;;;;;6.32;1.60;;;;;;;19.95;52.73;98746.31;5133645;27;20027;-46
2023/08/06 06:07:54;;;;;;;11.20;2.50;;;;;;;20.13;52.00;98741.63;5133589;27;20015;-46
2023/08/06 06:10:19;;;;;;;7.32;1.60;;;;;;;20.28;50.23;98743.50;5133327;27;20408;-46
2023/08/06 06:12:45;;;;;;;9.57;1.70;;;;;;;20.42;49.26;98747.28;5133255;27;20507;-46
2023/08/06 06:15:11;;;;;;;6.45;1.60;;;;;;;20.57;48.95;98746.53;5133112;27;20059;-46
2023/08/06 06:17:36;;;;;;;7.93;1.77;;;;;;;20.66;47.75;98746.81;5133422;27;20027;-46
2023/08/06 06:20:04;;;;;;;8.10;1.50;;;;;;;20.66;47.07;98749.50;5133555;27;20477;-46
2023/08/06 06:22:30;;;;;;;5.60;1.38;;;;;;;20.67;46.87;98762.56;5133419;27;20016;-46
2023/08/06 06:24:56;;;;;;;7.22;1.77;;;;;;;20.77;46.96;98769.00;5131959;27;20026;-46
2023/08/06 06:27:21;;;;;;;10.93;1.60;;;;;;;20.97;46.46;98766.34;5133230;27;20023;-46
2023/08/06 06:29:47;;;;;;;4.45;1.45;;;;;;;21.17;45.64;98770.06;5133284;27;20030;-46
2023/08/06 06:32:13;;;;;;;8.27;1.60;;;;;;;21.43;44.77;98769.00;5133270;27;20035;-46
2023/08/06 06:34:39;;;;;;;8.10;1.58;;;;;;;21.81;43.81;98777.47;5133195;27;20015;-46
2023/08/06 06:37:04;;;;;;;10.95;1.42;;;;;;;22.16;43.27;98773.06;5133075;27;20061;-46
2023/08/06 06:39:30;;;;;;;5.95;1.30;;;;;;;22.51;42.38;98785.47;5131674;27;20023;-46
2023/08/06 06:41:56;;;;;;;10.23;1.67;;;;;;;22.71;41.75;98786.44;5133007;27;20051;-46
2023/08/06 06:44:21;;;;;;;9.55;1.80;;;;;;;22.83;41.88;98789.56;5133041;27;20071;-46
2023/08/06 06:46:47;;;;;;;6.75;1.27;;;;;;;22.94;41.46;98784.97;5132934;27;20463;-47
2023/08/06 06:49:13;;;;;;;8.00;1.75;;;;;;;22.73;41.27;98784.28;5132905;27;20500;-47
2023/08/06 06:51:38;;;;;;;4.85;1.02;;;;;;;23.00;41.20;98791.88;5132840;27;20031;-47
2023/08/06 06:54:04;;;;;;;7.40;2.47;;;;;;;23.28;39.62;98787.66;5132914;27;20019;-46
2023/08/06 06:56:30;;;;;;;8.85;1.65;;;;;;;23.66;39.00;98787.03;5132867;27;20484;-46
2023/08/06 06:58:56;;;;;;;15.55;3.00;;;;;;;23.82;38.43;98779.66;5132852;27;20022;-46
2023/08/06 07:01:21;;;;;;;6.10;1.23;;;;;;;23.93;38.09;98786.50;5132956;27;20485;-46
2023/08/06 07:03:47;;;;;;;5.53;1.02;;;;;;;23.77;38.19;98775.16;5131446;28;20362;-46
2023/08/06 07:06:13;;;;;;;7.85;1.50;;;;;;;23.59;38.78;98787.38;5132702;27;20381;-46
2023/08/06 07:08:38;;;;;;;7.05;1.40;;;;;;;23.52;38.87;98798.41;5132573;28;20045;-47
2023/08/06 07:11:06;;;;;;;4.85;1.23;;;;;;;23.40;39.28;98813.25;5131419;28;20079;-46
2023/08/06 07:13:32;;;;;;;4.93;1.35;;;;;;;23.21;39.33;98805.91;5132599;27;20019;-47
2023/08/06 07:15:58;;;;;;;8.60;1.23;;;;;;;23.02;39.86;98811.16;5131264;28;20023;-46
2023/08/06 07:18:24;;;;;;;5.82;1.20;;;;;;;22.91;39.82;98818.41;5132585;27;20027;-47
2023/08/06 07:20:54;;;;;;;5.65;1.40;;;;;;;23.07;40.02;98816.47;5132530;27;20023;-46
2023/08/06 07:23:24;;;;;;;5.53;1.45;;;;;;;23.68;39.11;98820.50;5114134;28;20024;-47
2023/08/06 07:25:50;;;;;;;6.43;1.52;;;;;;;24.36;37.85;98815.22;5135634;27;20171;-47
2023/08/06 07:28:16;;;;;;;6.68;1.95;;;;;;;24.84;36.92;98820.50;5135388;27;20461;-46
2023/08/06 07:30:43;;;;;;;3.88;1.00;;;;;;;24.74;36.85;98828.69;5136702;27;20038;-47
2023/08/06 07:33:09;;;;;;;6.60;1.30;;;;;;;24.43;37.42;98832.56;5135632;27;20019;-47
2023/08/06 07:35:35;;;;;;;2.95;0.82;;;;;;;24.05;37.74;98829.00;5136560;27;20149;-47
2023/08/06 07:38:02;;;;;;;5.22;1.30;;;;;;;23.76;37.92;98820.97;5135221;27;20393;-47
2023/08/06 07:40:28;;;;;;;5.88;0.93;;;;;;;23.63;37.71;98836.63;5135161;27;20015;-46
2023/08/06 07:42:54;;;;;;;3.50;0.80;;;;;;;23.68;37.18;98828.56;5135115;27;20015;-47
2023/08/06 07:45:20;;;;;;;3.90;1.08;;;;;;;23.99;36.94;98824.78;5136652;27;20028;-47
2023/08/06 07:47:45;;;;;;;3.13;1.00;;;;;;;24.79;36.06;98823.25;5136605;27;20102;-47
2023/08/06 07:50:12;;;;;;;7.40;1.10;;;;;;;25.98;34.25;98823.72;5136296;27;20034;-47
2023/08/06 07:52:38;;;;;;;7.60;1.08;;;;;;;28.65;30.96;98812.66;5136265;27;20016;-47
2023/08/06 07:55:04;;;;;;;2.03;0.88;;;;;;;31.53;27.27;98799.59;5136392;27;20083;-47
2023/08/06 07:57:32;;;;;;;3.67;0.80;;;;;;;32.31;24.53;98792.38;5136132;27;20020;-47
2023/08/06 07:59:57;;;;;;;6.32;1.10;;;;;;;30.82;25.78;98798.66;5136047;27;20020;-47
2023/08/06 08:02:23;;;;;;;3.90;1.20;;;;;;;29.06;27.09;98797.06;5134728;27;20038;-47
2023/08/06 08:04:49;;;;;;;8.30;1.77;;;;;;;27.42;29.11;98809.81;5136018;27;20022;-47
2023/08/06 08:07:15;;;;;;;4.72;1.23;;;;;;;26.11;31.24;98819.44;5134610;27;20077;-47
2023/08/06 08:09:40;;;;;;;3.95;1.33;;;;;;;25.36;32.76;98818.63;5134348;27;20505;-46
2023/08/06 08:12:06;;;;;;;3.38;1.15;;;;;;;24.80;33.81;98825.63;5135907;27;20012;-46
2023/08/06 08:14:35;;;;;;;3.53;1.20;;;;;;;24.55;34.45;98832.19;5135678;27;20047;-47
2023/08/06 08:17:05;;;;;;;5.20;1.17;;;;;;;24.61;34.19;98827.50;5135706;27;20019;-46
2023/08/06 08:19:31;;;;;;;6.13;1.23;;;;;;;25.08;33.60;98828.47;5135580;27;20019;-46
2023/08/06 08:21:57;;;;;;;9.38;1.88;;;;;;;25.50;33.30;98822.16;5134312;27;20415;-46
2023/08/06 08:24:25;;;;;;;6.32;2.38;;;;;;;25.80;32.50;98827.28;5135693;27;20057;-47
2023/08/06 08:26:52;;;;;;;10.57;2.65;;;;;;;25.87;31.99;98833.06;5135630;27;20027;-47
2023/08/06 08:29:19;;;;;;;2.05;1.05;;;;;;;25.69;31.92;98837.41;5134259;27;20031;-47
2023/08/06 08:31:45;;;;;;;5.53;1.00;;;;;;;25.27;33.00;98842.69;5135771;27;20443;-46
2023/08/06 08:34:11;;;;;;;3.25;0.85;;;;;;;25.52;32.75;98841.47;5135490;27;20027;-46
2023/08/06 08:36:37;;;;;;;6.35;1.38;;;;;;;25.52;32.62;98838.78;5133228;27;20031;-46
2023/08/06 08:39:04;;;;;;;7.90;1.60;;;;;;;25.56;32.74;98838.19;5133994;27;20031;-46
2023/08/06 08:41:31;;;;;;;4.78;0.90;;;;;;;25.67;32.34;98839.59;5135213;27;20019;-47
2023/08/06 08:43:59;;;;;;;4.03;1.00;;;;;;;25.54;32.58;98826.94;5135325;27;20397;-46
2023/08/06 08:46:27;;;;;;;4.13;1.23;;;;;;;25.35;32.99;98824.28;5135187;27;20016;-47
2023/08/06 08:48:54;;;;;;;6.50;1.35;;;;;;;24.90;35.26;98835.44;5135251;27;20088;-47
2023/08/06 08:51:20;;;;;;;8.95;1.95;;;;;;;24.08;38.69;98839.94;5135115;27;20019;-46
2023/08/06 08:53:49;;;;;;;14.07;2.42;;;;;;;23.21;41.70;98848.75;5133974;27;20118;-46
2023/08/06 08:56:16;;;;;;;14.85;5.00;;;;;;;22.45;42.53;98863.34;5135232;27;20046;-46
2023/08/06 08:58:42;;;;;;;11.43;2.40;;;;;;;21.67;43.42;98870.75;5134920;27;20027;-47
2023/08/06 09:01:09;;;;;;;9.77;8.50;;;;;;;21.10;44.44;98871.75;5134848;27;20018;-47
2023/08/06 09:03:36;;;;;;;4.70;1.27;;;;;;;20.87;45.08;98876.50;5134909;27;20395;-47
2023/08/06 09:06:02;;;;;;;4.35;1.35;;;;;;;21.08;44.65;98876.53;5134796;27;20421;-46
2023/08/06 09:08:37;;;;;;;6.90;1.23;;;;;;;21.49;43.82;98872.06;5134513;27;20070;-48
2023/08/06 09:11:05;;;;;;;7.45;1.23;;;;;;;21.95;43.51;98868.53;5134710;27;20049;-47
2023/08/06 09:13:30;;;;;;;9.35;1.25;;;;;;;22.51;41.59;98851.56;5134688;27;20035;-47
2023/08/06 09:15:56;;;;;;;4.45;1.27;;;;;;;23.52;39.86;98861.91;5134631;27;20118;-47
2023/08/06 09:18:29;;;;;;;10.45;1.77;;;;;;;24.07;38.79;98859.00;5133291;27;20015;-47
2023/08/06 09:20:55;;;;;;;4.88;1.20;;;;;;;24.46;37.46;98864.16;5133132;27;20026;-46
2023/08/06 09:23:20;;;;;;;6.13;1.27;;;;;;;24.49;37.34;98860.13;5134519;27;20031;-46
2023/08/06 09:25:47;;;;;;;7.07;1.45;;;;;;;24.51;37.34;98866.03;5134460;27;20050;-47
2023/08/06 09:28:12;;;;;;;2.45;0.75;;;;;;;24.72;36.46;98853.94;5133131;27;20054;-47
2023/08/06 09:30:38;;;;;;;5.28;1.00;;;;;;;25.34;34.69;98866.50;5134609;27;20031;-46
2023/08/06 09:33:14;;;;;;;7.68;1.10;;;;;;;26.05;33.23;98860.97;5134255;27;20076;-47
2023/08/06 09:35:39;;;;;;;3.45;0.90;;;;;;;26.81;31.60;98853.25;5134260;27;20031;-47
2023/08/06 09:38:10;;;;;;;2.75;0.90;;;;;;;27.41;30.91;98862.94;5134206;27;20431;-46
2023/08/06 09:40:37;;;;;;;5.75;0.95;;;;;;;28.06;29.56;98852.66;5134103;27;20054;-47
2023/08/06 09:43:03;;;;;;;6.25;1.52;;;;;;;29.15;27.77;98854.59;5134354;27;20092;-47
2023/08/06 09:45:36;;;;;;;5.50;1.08;;;;;;;31.38;25.82;98845.19;5133980;27;20508;-47
2023/08/06 09:48:09;;;;;;;5.30;1.63;;;;;;;32.56;24.05;98837.41;5132703;27;20450;-47
2023/08/06 09:50:36;;;;;;;5.88;1.00;;;;;;;32.90;23.25;98829.81;5132639;27;20117;-47
2023/08/06 09:53:03;;;;;;;7.07;1.45;;;;;;;31.80;24.00;98841.56;5132594;27;20031;-47
2023/08/06 09:55:29;;;;;;;4.35;1.20;;;;;;;30.50;25.26;98846.22;5133768;27;20019;-47
2023/08/06 09:57:56;;;;;;;6.70;1.48;;;;;;;29.62;26.24;98853.88;5132422;27;20030;-47
2023/08/06 10:00:23;;;;;;;4.95;1.30;;;;;;;29.90;25.89;98850.81;5132374;27;20106;-47
2023/08/06 10:02:51;;;;;;;11.18;1.55;;;;;;;30.65;25.02;98848.34;5133629;27;20055;-47
2023/08/06 10:05:17;;;;;;;9.50;1.38;;;;;;;30.87;24.65;98852.66;5133609;27;20023;-47
2023/08/06 10:07:44;;;;;;;6.53;1.23;;;;;;;31.06;24.62;98844.84;5133619;27;20043;-47
2023/08/06 10:10:10;;;;;;;4.78;1.30;;;;;;;30.89;24.33;98855.03;5133233;27;20061;-47
2023/08/06 10:12:52;;;;;;;7.25;1.35;;;;;;;30.49;24.27;98853.56;5132167;27;20110;-46
2023/08/06 10:15:24;;;;;;;5.45;1.42;;;;;;;29.68;25.26;98849.91;5133579;27;20034;-47
2023/08/06 10:17:54;;;;;;;6.45;1.25;;;;;;;28.67;26.56;98853.63;5132402;27;20058;-47
2023/08/06 10:20:22;;;;;;;7.53;1.52;;;;;;;27.54;27.66;98857.78;5132352;27;20369;-47
2023/08/06 10:23:01;;;;;;;2.25;0.93;;;;;;;26.38;28.35;98853.63;5132094;27;20462;-47
2023/08/06 10:25:32;;;;;;;8.30;1.00;;;;;;;25.95;29.57;98867.34;5133421;27;20031;-47
2023/08/06 10:27:58;;;;;;;8.82;1.08;;;;;;;25.97;30.19;98872.44;5133306;27;20035;-47
2023/08/06 10:30:32;;;;;;;2.35;0.90;;;;;;;26.37;29.59;98865.47;5133250;27;20027;-47
2023/08/06 10:33:02;;;;;;;4.90;1.35;;;;;;;26.91;28.96;98860.31;5133245;27;20023;-47
2023/08/06 10:35:38;;;;;;;5.03;1.25;;;;;;;27.67;27.77;98856.91;5133118;27;20029;-47
2023/08/06 10:38:07;;;;;;;6.32;1.50;;;;;;;28.36;27.17;98859.09;5133188;27;20491;-47
2023/08/06 10:40:33;;;;;;;5.75;1.00;;;;;;;28.87;26.52;98857.59;5133092;27;20080;-47
2023/08/06 10:43:00;;;;;;;3.20;1.02;;;;;;;28.73;26.46;98856.16;5131728;27;20039;-47
2023/08/06 10:45:28;;;;;;;2.25;1.00;;;;;;;28.28;26.98;98862.56;5133287;27;20122;-47
2023/08/06 10:47:58;;;;;;;9.00;1.63;;;;;;;27.38;27.79;98868.13;5132903;27;20055;-47
2023/08/06 10:50:24;;;;;;;3.85;1.30;;;;;;;26.36;29.68;98877.34;5132868;27;20114;-46
2023/08/06 10:52:51;;;;;;;5.28;1.30;;;;;;;25.75;30.78;98875.75;5131601;27;20023;-47
2023/08/06 10:55:28;;;;;;;9.10;1.60;;;;;;;25.35;31.47;98872.66;5132886;27;20088;-47
2023/08/06 10:57:55;;;;;;;9.95;1.90;;;;;;;25.40;31.55;98873.38;5132799;27;20042;-46
2023/08/06 11:00:26;;;;;;;5.40;1.58;;;;;;;25.52;31.66;98875.59;5131004;27;20027;-47
2023/08/06 11:02:53;;;;;;;8.15;1.50;;;;;;;25.83;31.13;98867.78;5132861;27;20068;-47
2023/08/06 11:05:19;;;;;;;7.78;1.83;;;;;;;26.25;30.96;98857.09;5133019;27;20370;-47
2023/08/06 11:07:44;;;;;;;6.57;2.00;;;;;;;26.63;30.63;98860.38;5133029;27;20041;-47
2023/08/06 11:10:13;;;;;;;8.75;1.40;;;;;;;26.86;30.19;98847.78;5132499;28;20501;-46
2023/08/06 11:12:39;;;;;;;8.20;1.60;;;;;;;26.96;29.33;98848.63;5131614;28;20430;-47
2023/08/06 11:15:06;;;;;;;5.15;1.65;;;;;;;27.36;29.31;98840.69;5132667;27;20031;-47
2023/08/06 11:17:33;;;;;;;6.57;1.55;;;;;;;28.07;28.27;98840.75;5132742;27;20015;-47
2023/08/06 11:20:00;;;;;;;4.97;1.95;;;;;;;29.59;26.54;98841.03;5132655;27;20516;-47
2023/08/06 11:22:27;;;;;;;7.75;1.35;;;;;;;30.20;25.18;98836.19;5132897;27;20020;-47
2023/08/06 11:24:53;;;;;;;6.65;1.73;;;;;;;29.70;25.37;98844.16;5131249;28;20585;-46
2023/08/06 11:27:19;;;;;;;4.20;1.55;;;;;;;28.79;26.32;98844.88;5132582;27;20064;-46
2023/08/06 11:29:45;;;;;;;9.77;1.65;;;;;;;28.26;27.17;98845.91;5131223;28;20027;-46